sensor_id;sensor_type;location;lat;lon;timestamp;P1;durP1;ratioP1;P2;durP2;ratioP2
53269;SDS011;39159;45.634;9.420;2023-05-07T00:01:50;20.10;;;15.18;;
53269;SDS011;39159;45.634;9.420;2023-05-07T00:04:16;15.38;;;11.10;;
53269;SDS011;39159;45.634;9.420;2023-05-07T00:06:42;17.13;;;9.30;;
53269;SDS011;39159;45.634;9.420;2023-05-07T00:09:07;9.15;;;7.22;;
53269;SDS011;39159;45.634;9.420;2023-05-07T00:11:33;6.90;;;5.88;;
53269;SDS011;39159;45.634;9.420;2023-05-07T00:13:59;8.48;;;5.05;;
53269;SDS011;39159;45.634;9.420;2023-05-07T00:16:24;8.07;;;4.65;;
53269;SDS011;39159;45.634;9.420;2023-05-07T00:18:50;6.68;;;3.83;;
53269;SDS011;39159;45.634;9.420;2023-05-07T00:21:17;6.25;;;4.13;;
53269;SDS011;39159;45.634;9.420;2023-05-07T00:23:42;8.60;;;4.10;;
53269;SDS011;39159;45.634;9.420;2023-05-07T00:26:08;8.50;;;3.97;;
53269;SDS011;39159;45.634;9.420;2023-05-07T00:28:33;9.13;;;3.97;;
53269;SDS011;39159;45.634;9.420;2023-05-07T00:30:59;4.38;;;3.17;;
53269;SDS011;39159;45.634;9.420;2023-05-07T00:33:24;6.15;;;2.65;;
53269;SDS011;39159;45.634;9.420;2023-05-07T00:35:51;8.05;;;2.80;;
53269;SDS011;39159;45.634;9.420;2023-05-07T00:38:17;3.38;;;2.60;;
53269;SDS011;39159;45.634;9.420;2023-05-07T00:40:43;3.50;;;2.83;;
53269;SDS011;39159;45.634;9.420;2023-05-07T00:43:08;4.40;;;3.33;;
53269;SDS011;39159;45.634;9.420;2023-05-07T00:45:34;7.10;;;3.75;;
53269;SDS011;39159;45.634;9.420;2023-05-07T00:48:00;6.60;;;3.58;;
53269;SDS011;39159;45.634;9.420;2023-05-07T00:50:29;5.45;;;3.80;;
53269;SDS011;39159;45.634;9.420;2023-05-07T00:52:55;6.30;;;3.80;;
53269;SDS011;39159;45.634;9.420;2023-05-07T00:55:22;7.28;;;3.70;;
53269;SDS011;39159;45.634;9.420;2023-05-07T00:57:48;7.13;;;3.90;;
53269;SDS011;39159;45.634;9.420;2023-05-07T01:00:15;4.20;;;3.63;;
53269;SDS011;39159;45.634;9.420;2023-05-07T01:02:40;6.25;;;4.53;;
53269;SDS011;39159;45.634;9.420;2023-05-07T01:05:07;6.32;;;3.90;;
53269;SDS011;39159;45.634;9.420;2023-05-07T01:07:36;4.03;;;3.63;;
53269;SDS011;39159;45.634;9.420;2023-05-07T01:10:02;4.22;;;3.20;;
53269;SDS011;39159;45.634;9.420;2023-05-07T01:12:29;5.57;;;3.08;;
53269;SDS011;39159;45.634;9.420;2023-05-07T01:14:56;5.55;;;3.05;;
53269;SDS011;39159;45.634;9.420;2023-05-07T01:17:22;5.32;;;3.47;;
53269;SDS011;39159;45.634;9.420;2023-05-07T01:19:48;10.98;;;4.47;;
53269;SDS011;39159;45.634;9.420;2023-05-07T01:22:14;6.18;;;3.85;;
53269;SDS011;39159;45.634;9.420;2023-05-07T01:24:41;5.57;;;3.40;;
53269;SDS011;39159;45.634;9.420;2023-05-07T01:27:07;8.27;;;3.35;;
53269;SDS011;39159;45.634;9.420;2023-05-07T01:29:33;4.43;;;2.92;;
53269;SDS011;39159;45.634;9.420;2023-05-07T01:32:00;6.25;;;2.65;;
53269;SDS011;39159;45.634;9.420;2023-05-07T01:34:30;4.97;;;2.67;;
53269;SDS011;39159;45.634;9.420;2023-05-07T01:36:57;2.70;;;2.15;;
53269;SDS011;39159;45.634;9.420;2023-05-07T01:39:24;3.88;;;2.25;;
53269;SDS011;39159;45.634;9.420;2023-05-07T01:41:53;4.43;;;2.38;;
53269;SDS011;39159;45.634;9.420;2023-05-07T01:44:22;2.42;;;2.20;;
53269;SDS011;39159;45.634;9.420;2023-05-07T01:46:48;4.15;;;2.33;;
53269;SDS011;39159;45.634;9.420;2023-05-07T01:49:14;5.03;;;2.60;;
53269;SDS011;39159;45.634;9.420;2023-05-07T01:51:41;3.60;;;2.45;;
53269;SDS011;39159;45.634;9.420;2023-05-07T01:54:06;4.43;;;2.50;;
53269;SDS011;39159;45.634;9.420;2023-05-07T01:56:33;5.40;;;3.15;;
53269;SDS011;39159;45.634;9.420;2023-05-07T01:58:58;4.07;;;2.75;;
53269;SDS011;39159;45.634;9.420;2023-05-07T02:01:24;4.43;;;3.28;;
53269;SDS011;39159;45.634;9.420;2023-05-07T02:03:49;3.70;;;2.80;;
53269;SDS011;39159;45.634;9.420;2023-05-07T02:06:15;3.85;;;2.58;;
53269;SDS011;39159;45.634;9.420;2023-05-07T02:08:41;4.80;;;2.80;;
53269;SDS011;39159;45.634;9.420;2023-05-07T02:11:06;5.93;;;2.88;;
53269;SDS011;39159;45.634;9.420;2023-05-07T02:13:32;3.38;;;2.50;;
53269;SDS011;39159;45.634;9.420;2023-05-07T02:15:59;4.78;;;2.90;;
53269;SDS011;39159;45.634;9.420;2023-05-07T02:18:24;4.35;;;2.70;;
53269;SDS011;39159;45.634;9.420;2023-05-07T02:20:50;5.50;;;3.13;;
53269;SDS011;39159;45.634;9.420;2023-05-07T02:23:15;4.63;;;3.00;;
53269;SDS011;39159;45.634;9.420;2023-05-07T02:25:41;4.47;;;2.60;;
53269;SDS011;39159;45.634;9.420;2023-05-07T02:28:06;4.55;;;2.90;;
53269;SDS011;39159;45.634;9.420;2023-05-07T02:30:32;4.75;;;2.72;;
53269;SDS011;39159;45.634;9.420;2023-05-07T02:32:58;9.45;;;3.28;;
53269;SDS011;39159;45.634;9.420;2023-05-07T02:35:26;3.95;;;2.70;;
53269;SDS011;39159;45.634;9.420;2023-05-07T02:37:51;3.22;;;2.42;;
53269;SDS011;39159;45.634;9.420;2023-05-07T02:40:17;3.75;;;2.58;;
53269;SDS011;39159;45.634;9.420;2023-05-07T02:42:43;3.00;;;2.55;;
53269;SDS011;39159;45.634;9.420;2023-05-07T02:45:08;4.93;;;2.30;;
53269;SDS011;39159;45.634;9.420;2023-05-07T02:47:34;5.10;;;2.60;;
53269;SDS011;39159;45.634;9.420;2023-05-07T02:50:00;5.57;;;2.35;;
53269;SDS011;39159;45.634;9.420;2023-05-07T02:52:25;3.17;;;2.35;;
53269;SDS011;39159;45.634;9.420;2023-05-07T02:54:51;5.15;;;2.10;;
53269;SDS011;39159;45.634;9.420;2023-05-07T02:57:16;6.30;;;2.63;;
53269;SDS011;39159;45.634;9.420;2023-05-07T02:59:42;2.95;;;2.00;;
53269;SDS011;39159;45.634;9.420;2023-05-07T03:02:08;3.45;;;2.30;;
53269;SDS011;39159;45.634;9.420;2023-05-07T03:04:34;5.03;;;2.35;;
53269;SDS011;39159;45.634;9.420;2023-05-07T03:06:59;3.90;;;2.30;;
53269;SDS011;39159;45.634;9.420;2023-05-07T03:09:25;3.58;;;2.08;;
53269;SDS011;39159;45.634;9.420;2023-05-07T03:11:51;2.53;;;2.17;;
53269;SDS011;39159;45.634;9.420;2023-05-07T03:14:16;3.00;;;2.20;;
53269;SDS011;39159;45.634;9.420;2023-05-07T03:16:42;5.10;;;2.45;;
53269;SDS011;39159;45.634;9.420;2023-05-07T03:19:07;4.05;;;2.42;;
53269;SDS011;39159;45.634;9.420;2023-05-07T03:21:33;3.60;;;2.20;;
53269;SDS011;39159;45.634;9.420;2023-05-07T03:23:59;4.40;;;2.13;;
53269;SDS011;39159;45.634;9.420;2023-05-07T03:26:25;4.55;;;2.30;;
53269;SDS011;39159;45.634;9.420;2023-05-07T03:28:51;3.60;;;1.98;;
53269;SDS011;39159;45.634;9.420;2023-05-07T03:31:16;3.20;;;1.95;;
53269;SDS011;39159;45.634;9.420;2023-05-07T03:33:49;3.33;;;1.95;;
53269;SDS011;39159;45.634;9.420;2023-05-07T03:36:19;3.22;;;2.20;;
53269;SDS011;39159;45.634;9.420;2023-05-07T03:38:45;4.03;;;2.03;;
53269;SDS011;39159;45.634;9.420;2023-05-07T03:41:11;5.15;;;2.15;;
53269;SDS011;39159;45.634;9.420;2023-05-07T03:43:37;2.83;;;2.30;;
53269;SDS011;39159;45.634;9.420;2023-05-07T03:46:03;4.90;;;2.30;;
53269;SDS011;39159;45.634;9.420;2023-05-07T03:48:28;3.00;;;2.03;;
53269;SDS011;39159;45.634;9.420;2023-05-07T03:50:54;2.75;;;2.00;;
53269;SDS011;39159;45.634;9.420;2023-05-07T03:53:19;3.88;;;1.83;;
53269;SDS011;39159;45.634;9.420;2023-05-07T03:55:45;7.90;;;1.70;;
53269;SDS011;39159;45.634;9.420;2023-05-07T03:58:10;4.13;;;1.77;;
53269;SDS011;39159;45.634;9.420;2023-05-07T04:00:36;7.00;;;1.83;;
53269;SDS011;39159;45.634;9.420;2023-05-07T04:03:03;2.35;;;1.92;;
53269;SDS011;39159;45.634;9.420;2023-05-07T04:05:29;2.60;;;2.03;;
53269;SDS011;39159;45.634;9.420;2023-05-07T04:07:57;3.20;;;2.00;;
53269;SDS011;39159;45.634;9.420;2023-05-07T04:10:23;3.00;;;1.92;;
53269;SDS011;39159;45.634;9.420;2023-05-07T04:12:49;2.30;;;1.95;;
53269;SDS011;39159;45.634;9.420;2023-05-07T04:15:14;2.17;;;1.83;;
53269;SDS011;39159;45.634;9.420;2023-05-07T04:17:40;2.72;;;2.13;;
53269;SDS011;39159;45.634;9.420;2023-05-07T04:20:08;2.25;;;1.90;;
53269;SDS011;39159;45.634;9.420;2023-05-07T04:22:35;2.38;;;1.80;;
53269;SDS011;39159;45.634;9.420;2023-05-07T04:25:01;2.55;;;1.60;;
53269;SDS011;39159;45.634;9.420;2023-05-07T04:27:27;2.95;;;1.63;;
53269;SDS011;39159;45.634;9.420;2023-05-07T04:29:53;4.30;;;1.80;;
53269;SDS011;39159;45.634;9.420;2023-05-07T04:32:24;2.90;;;1.63;;
53269;SDS011;39159;45.634;9.420;2023-05-07T04:34:50;2.65;;;1.70;;
53269;SDS011;39159;45.634;9.420;2023-05-07T04:37:15;4.15;;;1.60;;
53269;SDS011;39159;45.634;9.420;2023-05-07T04:39:41;2.47;;;1.70;;
53269;SDS011;39159;45.634;9.420;2023-05-07T04:42:06;2.47;;;1.88;;
53269;SDS011;39159;45.634;9.420;2023-05-07T04:44:34;2.90;;;1.70;;
53269;SDS011;39159;45.634;9.420;2023-05-07T04:47:00;2.28;;;1.70;;
53269;SDS011;39159;45.634;9.420;2023-05-07T04:49:25;5.03;;;1.30;;
53269;SDS011;39159;45.634;9.420;2023-05-07T04:51:51;5.00;;;1.33;;
53269;SDS011;39159;45.634;9.420;2023-05-07T04:54:16;1.45;;;1.02;;
53269;SDS011;39159;45.634;9.420;2023-05-07T04:56:42;1.95;;;1.17;;
53269;SDS011;39159;45.634;9.420;2023-05-07T04:59:07;5.03;;;1.60;;
53269;SDS011;39159;45.634;9.420;2023-05-07T05:01:33;2.65;;;1.77;;
53269;SDS011;39159;45.634;9.420;2023-05-07T05:03:58;2.40;;;1.65;;
53269;SDS011;39159;45.634;9.420;2023-05-07T05:06:25;2.63;;;1.27;;
53269;SDS011;39159;45.634;9.420;2023-05-07T05:08:50;1.98;;;1.20;;
53269;SDS011;39159;45.634;9.420;2023-05-07T05:11:16;3.05;;;1.50;;
53269;SDS011;39159;45.634;9.420;2023-05-07T05:13:41;1.42;;;0.90;;
53269;SDS011;39159;45.634;9.420;2023-05-07T05:16:07;1.17;;;1.08;;
53269;SDS011;39159;45.634;9.420;2023-05-07T05:18:32;1.92;;;1.00;;
53269;SDS011;39159;45.634;9.420;2023-05-07T05:20:58;3.90;;;0.95;;
53269;SDS011;39159;45.634;9.420;2023-05-07T05:23:23;3.30;;;1.30;;
53269;SDS011;39159;45.634;9.420;2023-05-07T05:25:48;3.88;;;1.63;;
53269;SDS011;39159;45.634;9.420;2023-05-07T05:28:14;4.25;;;1.40;;
53269;SDS011;39159;45.634;9.420;2023-05-07T05:30:40;3.08;;;1.60;;
53269;SDS011;39159;45.634;9.420;2023-05-07T05:33:05;2.97;;;1.50;;
53269;SDS011;39159;45.634;9.420;2023-05-07T05:35:31;6.88;;;1.80;;
53269;SDS011;39159;45.634;9.420;2023-05-07T05:37:56;3.30;;;1.77;;
53269;SDS011;39159;45.634;9.420;2023-05-07T05:40:22;1.58;;;1.38;;
53269;SDS011;39159;45.634;9.420;2023-05-07T05:42:47;2.45;;;1.70;;
53269;SDS011;39159;45.634;9.420;2023-05-07T05:45:13;3.20;;;1.55;;
53269;SDS011;39159;45.634;9.420;2023-05-07T05:47:38;3.80;;;1.75;;
53269;SDS011;39159;45.634;9.420;2023-05-07T05:50:05;2.67;;;1.92;;
53269;SDS011;39159;45.634;9.420;2023-05-07T05:52:31;4.70;;;1.90;;
53269;SDS011;39159;45.634;9.420;2023-05-07T05:54:57;2.60;;;2.30;;
53269;SDS011;39159;45.634;9.420;2023-05-07T05:57:22;2.45;;;2.20;;
53269;SDS011;39159;45.634;9.420;2023-05-07T05:59:48;5.95;;;2.10;;
53269;SDS011;39159;45.634;9.420;2023-05-07T06:02:13;2.00;;;1.52;;
53269;SDS011;39159;45.634;9.420;2023-05-07T06:04:39;2.88;;;2.30;;
53269;SDS011;39159;45.634;9.420;2023-05-07T06:07:04;3.30;;;2.05;;
53269;SDS011;39159;45.634;9.420;2023-05-07T06:09:30;3.80;;;2.10;;
53269;SDS011;39159;45.634;9.420;2023-05-07T06:11:56;4.57;;;2.00;;
53269;SDS011;39159;45.634;9.420;2023-05-07T06:14:21;3.88;;;1.98;;
53269;SDS011;39159;45.634;9.420;2023-05-07T06:16:46;3.83;;;2.05;;
53269;SDS011;39159;45.634;9.420;2023-05-07T06:19:12;2.47;;;1.70;;
53269;SDS011;39159;45.634;9.420;2023-05-07T06:21:38;4.00;;;2.00;;
53269;SDS011;39159;45.634;9.420;2023-05-07T06:24:04;3.45;;;2.30;;
53269;SDS011;39159;45.634;9.420;2023-05-07T06:26:30;3.72;;;2.05;;
53269;SDS011;39159;45.634;9.420;2023-05-07T06:28:55;3.28;;;1.80;;
53269;SDS011;39159;45.634;9.420;2023-05-07T06:31:21;3.65;;;2.67;;
53269;SDS011;39159;45.634;9.420;2023-05-07T06:33:46;2.83;;;1.83;;
53269;SDS011;39159;45.634;9.420;2023-05-07T06:36:13;3.90;;;2.38;;
53269;SDS011;39159;45.634;9.420;2023-05-07T06:38:39;2.97;;;2.15;;
53269;SDS011;39159;45.634;9.420;2023-05-07T06:41:05;4.57;;;1.92;;
53269;SDS011;39159;45.634;9.420;2023-05-07T06:43:31;2.45;;;1.67;;
53269;SDS011;39159;45.634;9.420;2023-05-07T06:45:57;4.18;;;2.13;;
53269;SDS011;39159;45.634;9.420;2023-05-07T06:48:22;3.00;;;1.95;;
53269;SDS011;39159;45.634;9.420;2023-05-07T06:50:47;4.05;;;1.77;;
53269;SDS011;39159;45.634;9.420;2023-05-07T06:53:13;2.00;;;1.55;;
53269;SDS011;39159;45.634;9.420;2023-05-07T06:55:39;3.10;;;1.80;;
53269;SDS011;39159;45.634;9.420;2023-05-07T06:58:04;2.40;;;1.70;;
53269;SDS011;39159;45.634;9.420;2023-05-07T07:00:31;4.18;;;1.77;;
53269;SDS011;39159;45.634;9.420;2023-05-07T07:02:56;4.20;;;1.63;;
53269;SDS011;39159;45.634;9.420;2023-05-07T07:05:22;3.70;;;1.63;;
53269;SDS011;39159;45.634;9.420;2023-05-07T07:07:47;2.15;;;1.50;;
53269;SDS011;39159;45.634;9.420;2023-05-07T07:10:20;1.73;;;1.40;;
53269;SDS011;39159;45.634;9.420;2023-05-07T07:12:46;2.97;;;1.90;;
53269;SDS011;39159;45.634;9.420;2023-05-07T07:15:12;1.65;;;1.50;;
53269;SDS011;39159;45.634;9.420;2023-05-07T07:17:38;21.13;;;3.13;;
53269;SDS011;39159;45.634;9.420;2023-05-07T07:20:04;2.65;;;1.60;;
53269;SDS011;39159;45.634;9.420;2023-05-07T07:22:30;3.47;;;1.45;;
53269;SDS011;39159;45.634;9.420;2023-05-07T07:24:56;3.10;;;1.40;;
53269;SDS011;39159;45.634;9.420;2023-05-07T07:27:21;10.88;;;1.83;;
53269;SDS011;39159;45.634;9.420;2023-05-07T07:29:47;3.00;;;1.25;;
53269;SDS011;39159;45.634;9.420;2023-05-07T07:32:12;2.53;;;1.40;;
53269;SDS011;39159;45.634;9.420;2023-05-07T07:34:37;2.63;;;1.48;;
53269;SDS011;39159;45.634;9.420;2023-05-07T07:37:03;1.45;;;1.23;;
53269;SDS011;39159;45.634;9.420;2023-05-07T07:39:33;1.63;;;1.20;;
53269;SDS011;39159;45.634;9.420;2023-05-07T07:41:59;1.33;;;1.17;;
53269;SDS011;39159;45.634;9.420;2023-05-07T07:44:25;1.85;;;1.45;;
53269;SDS011;39159;45.634;9.420;2023-05-07T07:46:51;4.38;;;1.65;;
53269;SDS011;39159;45.634;9.420;2023-05-07T07:49:16;2.75;;;1.65;;
53269;SDS011;39159;45.634;9.420;2023-05-07T07:51:42;4.63;;;1.67;;
53269;SDS011;39159;45.634;9.420;2023-05-07T07:54:08;1.95;;;1.60;;
53269;SDS011;39159;45.634;9.420;2023-05-07T07:56:33;2.03;;;1.58;;
53269;SDS011;39159;45.634;9.420;2023-05-07T07:59:00;2.15;;;1.88;;
53269;SDS011;39159;45.634;9.420;2023-05-07T08:01:26;2.50;;;1.70;;
53269;SDS011;39159;45.634;9.420;2023-05-07T08:03:52;3.33;;;2.00;;
53269;SDS011;39159;45.634;9.420;2023-05-07T08:06:17;4.72;;;2.00;;
53269;SDS011;39159;45.634;9.420;2023-05-07T08:08:43;3.35;;;1.83;;
53269;SDS011;39159;45.634;9.420;2023-05-07T08:11:09;2.50;;;1.83;;
53269;SDS011;39159;45.634;9.420;2023-05-07T08:13:35;5.32;;;2.90;;
53269;SDS011;39159;45.634;9.420;2023-05-07T08:16:01;2.60;;;2.08;;
53269;SDS011;39159;45.634;9.420;2023-05-07T08:18:27;3.53;;;2.45;;
53269;SDS011;39159;45.634;9.420;2023-05-07T08:20:54;2.67;;;2.20;;
53269;SDS011;39159;45.634;9.420;2023-05-07T08:23:20;3.60;;;1.92;;
53269;SDS011;39159;45.634;9.420;2023-05-07T08:25:45;3.65;;;2.00;;
53269;SDS011;39159;45.634;9.420;2023-05-07T08:28:11;3.53;;;1.98;;
53269;SDS011;39159;45.634;9.420;2023-05-07T08:30:37;3.72;;;2.10;;
53269;SDS011;39159;45.634;9.420;2023-05-07T08:33:02;5.85;;;2.40;;
53269;SDS011;39159;45.634;9.420;2023-05-07T08:35:28;3.67;;;2.10;;
53269;SDS011;39159;45.634;9.420;2023-05-07T08:37:53;3.70;;;2.17;;
53269;SDS011;39159;45.634;9.420;2023-05-07T08:40:19;5.72;;;2.20;;
53269;SDS011;39159;45.634;9.420;2023-05-07T08:42:49;2.80;;;2.30;;
53269;SDS011;39159;45.634;9.420;2023-05-07T08:45:17;7.00;;;2.70;;
53269;SDS011;39159;45.634;9.420;2023-05-07T08:47:46;5.38;;;2.60;;
53269;SDS011;39159;45.634;9.420;2023-05-07T08:50:15;3.58;;;2.53;;
53269;SDS011;39159;45.634;9.420;2023-05-07T08:52:41;2.63;;;2.28;;
53269;SDS011;39159;45.634;9.420;2023-05-07T08:55:07;4.93;;;2.05;;
53269;SDS011;39159;45.634;9.420;2023-05-07T08:57:33;3.00;;;1.85;;
53269;SDS011;39159;45.634;9.420;2023-05-07T08:59:59;2.42;;;1.88;;
53269;SDS011;39159;45.634;9.420;2023-05-07T09:02:25;1.55;;;1.30;;
53269;SDS011;39159;45.634;9.420;2023-05-07T09:04:50;4.20;;;1.48;;
53269;SDS011;39159;45.634;9.420;2023-05-07T09:07:16;2.45;;;1.70;;
53269;SDS011;39159;45.634;9.420;2023-05-07T09:09:43;1.90;;;1.30;;
53269;SDS011;39159;45.634;9.420;2023-05-07T09:12:09;2.75;;;1.63;;
53269;SDS011;39159;45.634;9.420;2023-05-07T09:14:35;3.42;;;1.52;;
53269;SDS011;39159;45.634;9.420;2023-05-07T09:17:00;1.55;;;1.20;;
53269;SDS011;39159;45.634;9.420;2023-05-07T09:19:26;2.53;;;1.30;;
53269;SDS011;39159;45.634;9.420;2023-05-07T09:22:02;2.67;;;1.60;;
53269;SDS011;39159;45.634;9.420;2023-05-07T09:24:29;2.08;;;1.40;;
53269;SDS011;39159;45.634;9.420;2023-05-07T09:26:59;1.70;;;1.48;;
53269;SDS011;39159;45.634;9.420;2023-05-07T09:29:26;4.20;;;1.73;;
53269;SDS011;39159;45.634;9.420;2023-05-07T09:31:54;3.83;;;1.85;;
53269;SDS011;39159;45.634;9.420;2023-05-07T09:34:20;4.65;;;2.25;;
53269;SDS011;39159;45.634;9.420;2023-05-07T09:36:45;4.55;;;1.98;;
53269;SDS011;39159;45.634;9.420;2023-05-07T09:39:11;3.42;;;2.35;;
53269;SDS011;39159;45.634;9.420;2023-05-07T09:41:44;3.72;;;2.42;;
53269;SDS011;39159;45.634;9.420;2023-05-07T09:44:10;3.63;;;1.85;;
53269;SDS011;39159;45.634;9.420;2023-05-07T09:46:36;2.10;;;1.75;;
53269;SDS011;39159;45.634;9.420;2023-05-07T09:49:03;2.00;;;1.50;;
53269;SDS011;39159;45.634;9.420;2023-05-07T09:51:39;2.13;;;1.20;;
53269;SDS011;39159;45.634;9.420;2023-05-07T09:54:08;3.80;;;1.33;;
53269;SDS011;39159;45.634;9.420;2023-05-07T09:56:35;3.88;;;1.63;;
53269;SDS011;39159;45.634;9.420;2023-05-07T09:59:03;2.85;;;1.40;;
53269;SDS011;39159;45.634;9.420;2023-05-07T10:01:31;1.65;;;1.40;;
53269;SDS011;39159;45.634;9.420;2023-05-07T10:03:58;4.05;;;1.88;;
53269;SDS011;39159;45.634;9.420;2023-05-07T10:06:24;2.50;;;1.98;;
53269;SDS011;39159;45.634;9.420;2023-05-07T10:08:53;2.85;;;2.22;;
53269;SDS011;39159;45.634;9.420;2023-05-07T10:11:19;3.47;;;1.80;;
53269;SDS011;39159;45.634;9.420;2023-05-07T10:13:46;6.32;;;1.65;;
53269;SDS011;39159;45.634;9.420;2023-05-07T10:16:13;2.53;;;1.55;;
53269;SDS011;39159;45.634;9.420;2023-05-07T10:18:42;2.10;;;1.50;;
53269;SDS011;39159;45.634;9.420;2023-05-07T10:21:15;3.88;;;1.50;;
53269;SDS011;39159;45.634;9.420;2023-05-07T10:23:44;2.38;;;1.48;;
53269;SDS011;39159;45.634;9.420;2023-05-07T10:26:11;2.35;;;1.30;;
53269;SDS011;39159;45.634;9.420;2023-05-07T10:28:39;3.92;;;1.58;;
53269;SDS011;39159;45.634;9.420;2023-05-07T10:31:25;3.53;;;1.50;;
53269;SDS011;39159;45.634;9.420;2023-05-07T10:33:53;4.20;;;2.20;;
53269;SDS011;39159;45.634;9.420;2023-05-07T10:36:21;3.05;;;1.95;;
53269;SDS011;39159;45.634;9.420;2023-05-07T10:38:48;1.77;;;1.60;;
53269;SDS011;39159;45.634;9.420;2023-05-07T10:41:14;2.55;;;1.70;;
53269;SDS011;39159;45.634;9.420;2023-05-07T10:43:42;1.95;;;1.42;;
53269;SDS011;39159;45.634;9.420;2023-05-07T10:46:16;1.92;;;1.48;;
53269;SDS011;39159;45.634;9.420;2023-05-07T10:51:28;1.65;;;1.40;;
53269;SDS011;39159;45.634;9.420;2023-05-07T10:54:41;1.63;;;1.42;;
53269;SDS011;39159;45.634;9.420;2023-05-07T10:56:44;2.85;;;1.40;;
53269;SDS011;39159;45.634;9.420;2023-05-07T11:01:55;2.10;;;1.90;;
53269;SDS011;39159;45.634;9.420;2023-05-07T11:04:23;3.08;;;2.00;;
53269;SDS011;39159;45.634;9.420;2023-05-07T11:13:02;2.63;;;2.03;;
53269;SDS011;39159;45.634;9.420;2023-05-07T11:15:06;1.88;;;1.58;;
53269;SDS011;39159;45.634;9.420;2023-05-07T11:17:33;3.72;;;2.10;;
53269;SDS011;39159;45.634;9.420;2023-05-07T11:20:00;2.70;;;2.17;;
53269;SDS011;39159;45.634;9.420;2023-05-07T11:25:04;3.88;;;2.05;;
53269;SDS011;39159;45.634;9.420;2023-05-07T11:27:31;3.47;;;2.20;;
53269;SDS011;39159;45.634;9.420;2023-05-07T11:29:57;2.67;;;2.20;;
53269;SDS011;39159;45.634;9.420;2023-05-07T11:32:27;2.55;;;2.30;;
53269;SDS011;39159;45.634;9.420;2023-05-07T11:34:57;2.50;;;2.30;;
53269;SDS011;39159;45.634;9.420;2023-05-07T11:37:24;3.00;;;2.30;;
53269;SDS011;39159;45.634;9.420;2023-05-07T11:40:13;3.25;;;2.05;;
53269;SDS011;39159;45.634;9.420;2023-05-07T11:42:39;2.58;;;1.95;;
53269;SDS011;39159;45.634;9.420;2023-05-07T11:45:06;4.47;;;2.92;;
53269;SDS011;39159;45.634;9.420;2023-05-07T11:47:32;4.95;;;2.17;;
53269;SDS011;39159;45.634;9.420;2023-05-07T11:50:03;4.22;;;2.47;;
53269;SDS011;39159;45.634;9.420;2023-05-07T11:52:30;3.42;;;2.55;;
53269;SDS011;39159;45.634;9.420;2023-05-07T11:54:57;4.28;;;2.42;;
53269;SDS011;39159;45.634;9.420;2023-05-07T11:57:24;4.88;;;2.90;;
53269;SDS011;39159;45.634;9.420;2023-05-07T11:59:57;3.83;;;2.42;;
53269;SDS011;39159;45.634;9.420;2023-05-07T12:02:24;2.45;;;2.20;;
53269;SDS011;39159;45.634;9.420;2023-05-07T12:04:51;2.58;;;2.38;;
53269;SDS011;39159;45.634;9.420;2023-05-07T12:07:16;2.92;;;2.17;;
53269;SDS011;39159;45.634;9.420;2023-05-07T12:09:43;3.53;;;2.17;;
53269;SDS011;39159;45.634;9.420;2023-05-07T12:12:10;4.30;;;2.25;;
53269;SDS011;39159;45.634;9.420;2023-05-07T12:14:39;3.92;;;2.08;;
53269;SDS011;39159;45.634;9.420;2023-05-07T12:17:06;2.20;;;2.00;;
53269;SDS011;39159;45.634;9.420;2023-05-07T12:19:33;2.33;;;2.08;;
53269;SDS011;39159;45.634;9.420;2023-05-07T12:21:59;2.45;;;1.92;;
53269;SDS011;39159;45.634;9.420;2023-05-07T12:24:27;2.40;;;2.20;;
53269;SDS011;39159;45.634;9.420;2023-05-07T12:26:53;3.30;;;2.10;;
53269;SDS011;39159;45.634;9.420;2023-05-07T12:29:22;2.72;;;2.20;;
53269;SDS011;39159;45.634;9.420;2023-05-07T12:31:50;2.50;;;1.98;;
53269;SDS011;39159;45.634;9.420;2023-05-07T12:34:15;3.10;;;2.10;;
53269;SDS011;39159;45.634;9.420;2023-05-07T12:36:41;3.60;;;2.30;;
53269;SDS011;39159;45.634;9.420;2023-05-07T12:39:07;2.95;;;2.40;;
53269;SDS011;39159;45.634;9.420;2023-05-07T12:41:55;3.08;;;2.50;;
53269;SDS011;39159;45.634;9.420;2023-05-07T12:44:23;5.68;;;2.35;;
53269;SDS011;39159;45.634;9.420;2023-05-07T12:46:50;2.40;;;2.20;;
53269;SDS011;39159;45.634;9.420;2023-05-07T12:49:17;2.25;;;1.77;;
53269;SDS011;39159;45.634;9.420;2023-05-07T12:51:48;3.58;;;2.10;;
53269;SDS011;39159;45.634;9.420;2023-05-07T12:57:05;2.88;;;2.00;;
53269;SDS011;39159;45.634;9.420;2023-05-07T12:59:39;3.67;;;2.42;;
53269;SDS011;39159;45.634;9.420;2023-05-07T13:02:06;2.28;;;2.08;;
53269;SDS011;39159;45.634;9.420;2023-05-07T13:04:33;3.08;;;2.45;;
53269;SDS011;39159;45.634;9.420;2023-05-07T13:06:59;5.75;;;2.70;;
53269;SDS011;39159;45.634;9.420;2023-05-07T13:09:25;3.45;;;2.35;;
53269;SDS011;39159;45.634;9.420;2023-05-07T13:11:51;3.22;;;2.33;;
53269;SDS011;39159;45.634;9.420;2023-05-07T13:14:16;3.63;;;2.05;;
53269;SDS011;39159;45.634;9.420;2023-05-07T13:16:42;2.35;;;2.08;;
53269;SDS011;39159;45.634;9.420;2023-05-07T13:19:08;3.83;;;2.40;;
53269;SDS011;39159;45.634;9.420;2023-05-07T13:21:33;2.58;;;2.00;;
53269;SDS011;39159;45.634;9.420;2023-05-07T13:23:59;2.67;;;2.47;;
53269;SDS011;39159;45.634;9.420;2023-05-07T13:26:25;5.68;;;2.75;;
53269;SDS011;39159;45.634;9.420;2023-05-07T13:28:51;4.50;;;2.60;;
53269;SDS011;39159;45.634;9.420;2023-05-07T13:31:17;2.92;;;2.45;;
53269;SDS011;39159;45.634;9.420;2023-05-07T13:33:43;3.05;;;2.65;;
53269;SDS011;39159;45.634;9.420;2023-05-07T13:36:08;2.45;;;1.83;;
53269;SDS011;39159;45.634;9.420;2023-05-07T13:38:34;2.42;;;2.00;;
53269;SDS011;39159;45.634;9.420;2023-05-07T13:41:00;2.42;;;2.10;;
53269;SDS011;39159;45.634;9.420;2023-05-07T13:43:25;11.65;;;2.53;;
53269;SDS011;39159;45.634;9.420;2023-05-07T13:45:51;2.95;;;2.60;;
53269;SDS011;39159;45.634;9.420;2023-05-07T13:48:16;3.42;;;3.05;;
53269;SDS011;39159;45.634;9.420;2023-05-07T13:50:42;2.35;;;2.15;;
53269;SDS011;39159;45.634;9.420;2023-05-07T13:53:07;3.33;;;2.50;;
53269;SDS011;39159;45.634;9.420;2023-05-07T13:55:33;2.78;;;2.30;;
53269;SDS011;39159;45.634;9.420;2023-05-07T13:57:59;3.13;;;2.17;;
53269;SDS011;39159;45.634;9.420;2023-05-07T14:00:27;2.95;;;2.15;;
53269;SDS011;39159;45.634;9.420;2023-05-07T14:02:53;5.00;;;3.10;;
53269;SDS011;39159;45.634;9.420;2023-05-07T14:05:19;2.85;;;2.25;;
53269;SDS011;39159;45.634;9.420;2023-05-07T14:07:45;3.75;;;2.22;;
53269;SDS011;39159;45.634;9.420;2023-05-07T14:10:11;2.47;;;2.28;;
53269;SDS011;39159;45.634;9.420;2023-05-07T14:12:38;2.30;;;2.10;;
53269;SDS011;39159;45.634;9.420;2023-05-07T14:15:03;2.20;;;1.92;;
53269;SDS011;39159;45.634;9.420;2023-05-07T14:17:29;2.65;;;2.03;;
53269;SDS011;39159;45.634;9.420;2023-05-07T14:19:55;2.10;;;1.90;;
53269;SDS011;39159;45.634;9.420;2023-05-07T14:22:21;2.28;;;1.90;;
53269;SDS011;39159;45.634;9.420;2023-05-07T14:24:47;3.58;;;2.08;;
53269;SDS011;39159;45.634;9.420;2023-05-07T14:27:13;1.70;;;1.60;;
53269;SDS011;39159;45.634;9.420;2023-05-07T14:29:38;2.35;;;2.00;;
53269;SDS011;39159;45.634;9.420;2023-05-07T14:32:04;2.70;;;2.10;;
53269;SDS011;39159;45.634;9.420;2023-05-07T14:34:30;2.53;;;2.10;;
53269;SDS011;39159;45.634;9.420;2023-05-07T14:36:56;2.58;;;2.13;;
53269;SDS011;39159;45.634;9.420;2023-05-07T14:39:21;3.53;;;1.80;;
53269;SDS011;39159;45.634;9.420;2023-05-07T14:41:47;3.60;;;2.17;;
53269;SDS011;39159;45.634;9.420;2023-05-07T14:44:12;3.50;;;2.03;;
53269;SDS011;39159;45.634;9.420;2023-05-07T14:46:38;2.78;;;2.10;;
53269;SDS011;39159;45.634;9.420;2023-05-07T14:49:03;2.58;;;1.95;;
53269;SDS011;39159;45.634;9.420;2023-05-07T14:51:29;3.28;;;2.13;;
53269;SDS011;39159;45.634;9.420;2023-05-07T14:53:55;2.13;;;1.92;;
53269;SDS011;39159;45.634;9.420;2023-05-07T14:56:21;3.15;;;1.80;;
53269;SDS011;39159;45.634;9.420;2023-05-07T14:58:47;2.17;;;1.95;;
53269;SDS011;39159;45.634;9.420;2023-05-07T15:01:16;3.53;;;2.10;;